.
WxDataArchive / Data Records for 2008-07-03
2008-07-02 July 2008 2008-07-04

Data Records for Thursday, 03 July 2008

Time	Temp	Chill	HIndex	Humid	Dewpt	 Wind 	HiWind	WindDir	Rain 	Barom 
-----	----	-----	------	-----	-----	------	------	-------	-----	----- 
00:00	69.4	69.4	69.4	94	67.6	0	1	68	0.00	29.738 
00:05	69.4	69.4	69.4	94	67.6	0	1	68	0.01	29.737 
00:10	69.4	69.4	69.4	94	67.6	0	1	68	0.00	29.735 
00:15	69.4	69.4	69.4	94	67.6	0	1	68	0.00	29.736 
00:20	69.6	69.6	69.6	94	67.8	0	2	68	0.00	29.736 
00:25	69.6	69.6	69.6	94	67.8	0	2	68	0.00	29.737 
00:30	69.6	69.6	69.6	94	67.8	0	1	68	0.00	29.738 
00:35	69.6	69.6	69.6	93	67.5	0	2	68	0.00	29.737 
00:40	69.6	69.6	69.6	93	67.5	0	2	68	0.00	29.737 
00:45	69.6	69.6	69.6	93	67.5	0	2	68	0.00	29.740 
00:50	69.6	69.6	69.6	93	67.5	0	2	68	0.00	29.739 
00:55	69.6	69.6	69.6	93	67.5	1	3	68	0.00	29.743 
01:00	69.6	69.6	69.6	92	67.2	1	4	225	0.00	29.742 
01:05	69.8	69.8	69.8	92	67.4	0	2	225	0.00	29.745 
01:10	69.8	69.8	69.8	92	67.4	0	2	248	0.00	29.750 
01:15	69.9	69.9	69.9	92	67.5	0	3	248	0.00	29.750 
01:20	69.9	69.9	69.9	92	67.5	0	1	248	0.00	29.752 
01:25	70.1	70.1	70.1	91	67.3	0	1	248	0.00	29.753 
01:30	70.1	70.1	70.1	91	67.3	0	1	248	0.00	29.754 
01:35	70.3	70.3	70.3	91	67.5	0	1	338	0.00	29.753 
01:40	70.4	70.4	70.4	91	67.6	0	0	---	0.00	29.752 
01:45	70.3	70.3	70.3	91	67.5	0	0	---	0.00	29.753 
01:50	70.3	70.3	70.3	91	67.5	0	0	---	0.00	29.754 
01:55	70.3	70.3	70.3	92	67.9	0	1	338	0.00	29.754 
02:00	70.1	70.1	70.1	92	67.7	0	1	338	0.00	29.755 
02:05	70.1	70.1	70.1	92	67.7	0	1	338	0.00	29.754 
02:10	70.1	70.1	70.1	92	67.7	0	3	338	0.00	29.759 
02:15	70.3	70.3	70.3	91	67.5	1	3	292	0.00	29.760 
02:20	70.6	70.6	70.6	90	67.5	1	3	248	0.00	29.764 
02:25	70.8	70.8	70.8	90	67.7	0	3	248	0.00	29.763 
02:30	70.6	70.6	70.6	89	67.2	1	4	248	0.00	29.758 
02:35	70.4	70.4	70.4	89	67.0	1	4	248	0.01	29.758 
02:40	70.3	70.3	70.3	88	66.6	1	3	248	0.00	29.761 
02:45	70.1	70.1	70.1	88	66.4	1	4	248	0.00	29.765 
02:50	69.8	69.8	69.8	88	66.1	0	2	248	0.00	29.761 
02:55	69.6	69.6	69.6	88	65.9	1	2	248	0.00	29.755 
03:00	69.4	69.4	69.4	89	66.0	0	2	270	0.00	29.758 
03:05	69.3	69.3	69.3	89	65.9	1	3	270	0.00	29.755 
03:10	69.1	69.1	69.1	88	65.4	1	3	270	0.00	29.759 
03:15	69.1	69.1	69.1	88	65.4	2	6	270	0.00	29.756 
03:20	68.9	68.9	68.9	88	65.2	1	3	248	0.01	29.754 
03:25	68.6	68.6	68.6	88	64.9	1	3	248	0.01	29.753 
03:30	68.4	68.4	68.4	89	65.0	1	2	248	0.00	29.746 
03:35	68.3	68.3	68.3	90	65.2	0	1	225	0.00	29.746 
03:40	67.9	67.9	67.9	90	64.9	1	3	225	0.00	29.745 
03:45	67.9	67.9	67.9	91	65.2	0	2	270	0.00	29.748 
03:50	67.8	67.8	67.8	91	65.1	0	3	270	0.00	29.751 
03:55	67.8	67.8	67.8	91	65.1	1	3	248	0.00	29.752 
04:00	67.9	67.9	67.9	90	64.9	1	4	248	0.00	29.753 
04:05	67.9	67.9	67.9	90	64.9	1	4	248	0.00	29.755 
04:10	68.3	68.3	68.3	88	64.6	1	3	225	0.00	29.757 
04:15	68.4	68.4	68.4	87	64.4	1	4	248	0.00	29.759 
04:20	68.6	68.6	68.6	87	64.6	1	3	248	0.00	29.764 
04:25	68.6	68.6	68.6	87	64.6	0	2	248	0.01	29.770 
04:30	68.6	68.6	68.6	87	64.6	0	2	248	0.00	29.770 
04:35	68.4	68.4	68.4	88	64.7	0	2	248	0.00	29.772 
04:40	68.3	68.3	68.3	88	64.6	0	2	248	0.00	29.773 
04:45	68.3	68.3	68.3	89	64.9	0	1	248	0.00	29.776 
04:50	68.1	68.1	68.1	89	64.7	0	1	248	0.00	29.777 
04:55	68.1	68.1	68.1	89	64.7	0	1	248	0.00	29.778 
05:00	68.1	68.1	68.1	90	65.0	0	1	248	0.00	29.780 
05:05	68.1	68.1	68.1	90	65.0	0	1	248	0.00	29.782 
05:10	68.1	68.1	68.1	90	65.0	0	1	248	0.00	29.781 
05:15	68.3	68.3	68.3	90	65.2	0	1	248	0.00	29.782 
05:20	68.3	68.3	68.3	90	65.2	0	1	248	0.00	29.781 
05:25	68.4	68.4	68.4	90	65.3	0	1	248	0.00	29.786 
05:30	68.4	68.4	68.4	91	65.7	0	1	248	0.00	29.788 
05:35	68.6	68.6	68.6	91	65.9	0	1	248	0.00	29.787 
05:40	68.6	68.6	68.6	91	65.9	0	1	248	0.00	29.787 
05:45	68.6	68.6	68.6	91	65.9	0	1	248	0.00	29.789 
05:50	68.8	68.8	68.8	91	66.1	0	1	248	0.00	29.789 
05:55	68.8	68.8	68.8	91	66.1	0	1	248	0.00	29.792 
06:00	68.8	68.8	68.8	91	66.1	0	2	248	0.00	29.792 
06:05	68.9	68.9	68.9	91	66.2	0	1	248	0.00	29.797 
06:10	68.9	68.9	68.9	91	66.2	0	3	248	0.00	29.797 
06:15	68.9	68.9	68.9	91	66.2	0	2	248	0.00	29.800 
06:20	68.9	68.9	68.9	91	66.2	0	1	248	0.00	29.801 
06:25	68.9	68.9	68.9	91	66.2	0	2	248	0.00	29.802 
06:30	68.8	68.8	68.8	91	66.1	0	2	248	0.00	29.802 
06:35	68.6	68.6	68.6	92	66.2	0	3	248	0.00	29.802 
06:40	68.6	68.6	68.6	92	66.2	0	2	248	0.00	29.803 
06:45	68.4	68.4	68.4	92	66.0	0	1	248	0.01	29.805 
06:50	68.4	68.4	68.4	92	66.0	0	2	248	0.00	29.807 
06:55	68.3	68.3	68.3	93	66.2	0	3	248	0.01	29.808 
07:00	68.3	68.3	68.3	93	66.2	0	3	248	0.00	29.808 
07:05	68.1	68.1	68.1	93	66.0	1	3	248	0.01	29.808 
07:10	67.9	67.9	67.9	94	66.1	0	2	248	0.00	29.810 
07:15	67.9	67.9	67.9	94	66.1	0	3	248	0.00	29.816 
07:20	67.9	67.9	67.9	94	66.1	0	2	248	0.00	29.819 
07:25	67.9	67.9	67.9	94	66.1	0	1	248	0.00	29.821 
07:30	67.8	67.8	67.8	94	66.0	0	1	248	0.00	29.823 
07:35	67.8	67.8	67.8	95	66.3	0	1	248	0.00	29.826 
07:40	67.8	67.8	67.8	95	66.3	0	1	248	0.00	29.827 
07:45	67.8	67.8	67.8	95	66.3	0	2	248	0.00	29.830 
07:50	67.6	67.6	67.6	95	66.1	0	2	248	0.01	29.830 
07:55	67.6	67.6	67.6	95	66.1	0	3	248	0.00	29.832 
08:00	67.4	67.4	67.4	95	65.9	0	1	248	0.00	29.835 
08:05	67.4	67.4	67.4	95	65.9	0	2	248	0.01	29.844 
08:10	67.3	67.3	67.3	95	65.8	0	1	270	0.02	29.845 
08:15	67.1	67.1	67.1	95	65.6	0	1	248	0.01	29.846 
08:20	67.3	67.3	67.3	95	65.8	0	0	---	0.00	29.847 
08:25	67.3	67.3	67.3	95	65.8	0	0	---	0.00	29.848 
08:30	67.3	67.3	67.3	96	66.1	0	2	270	0.00	29.849 
08:35	66.9	66.9	66.9	95	65.4	0	1	270	0.00	29.852 
08:40	66.4	66.4	66.4	95	64.9	0	2	270	0.00	29.856 
08:45	66.1	66.1	66.1	95	64.6	0	2	270	0.00	29.860 
08:50	65.8	65.8	65.8	95	64.3	0	2	270	0.00	29.862 
08:55	65.8	65.8	65.8	95	64.3	0	1	270	0.00	29.865 
09:00	65.5	65.5	65.5	95	64.0	0	2	270	0.00	29.871 
09:05	65.5	65.5	65.5	95	64.0	0	1	270	0.00	29.875 
09:10	65.3	65.3	65.3	95	63.8	0	2	270	0.00	29.878 
09:15	65.3	65.3	65.3	95	63.8	0	2	270	0.00	29.879 
09:20	65.3	65.3	65.3	95	63.8	0	1	270	0.00	29.880 
09:25	65.3	65.3	65.3	95	63.8	0	1	270	0.00	29.881 
09:30	65.3	65.3	65.3	95	63.8	0	1	270	0.00	29.882 
09:35	65.5	65.5	65.5	95	64.0	0	1	270	0.00	29.884 
09:40	65.5	65.5	65.5	95	64.0	0	1	270	0.00	29.886 
09:45	65.5	65.5	65.5	95	64.0	0	1	270	0.00	29.887 
09:50	65.5	65.5	65.5	95	64.0	0	1	270	0.00	29.890 
09:55	65.5	65.5	65.5	95	64.0	0	1	270	0.00	29.892 
10:00	65.5	65.5	65.5	95	64.0	0	1	270	0.00	29.895 
10:05	65.2	65.2	65.2	94	63.4	0	3	270	0.00	29.895 
10:10	64.8	64.8	64.8	94	63.0	0	2	270	0.00	29.899 
10:15	64.7	64.7	64.7	93	62.6	0	1	270	0.00	29.905 
10:20	64.5	64.5	64.5	92	62.1	0	1	270	0.00	29.908 
10:25	64.3	64.3	64.3	92	61.9	0	2	315	0.00	29.910 
10:30	64.3	64.3	64.3	91	61.6	0	1	315	0.00	29.911 
10:35	64.3	64.3	64.3	91	61.6	0	3	315	0.00	29.911 
10:40	64.5	64.5	64.5	90	61.5	0	1	292	0.00	29.912 
10:45	64.3	64.3	64.3	89	61.0	0	2	292	0.00	29.912 
10:50	64.5	64.5	64.5	89	61.2	0	1	292	0.00	29.913 
10:55	64.5	64.5	64.5	89	61.2	0	3	202	0.00	29.914 
11:00	64.7	64.7	64.7	88	61.1	0	1	202	0.00	29.917 
11:05	64.8	64.8	64.8	88	61.2	0	1	202	0.00	29.920 
11:10	64.8	64.8	64.8	88	61.2	0	2	202	0.00	29.922 
11:15	65.0	65.0	65.0	88	61.4	0	3	45	0.00	29.923 
11:20	65.2	65.2	65.2	89	61.9	0	1	45	0.00	29.923 
11:25	65.2	65.2	65.2	88	61.6	0	2	45	0.00	29.923 
11:30	65.5	65.5	65.5	89	62.2	0	2	22	0.00	29.924 
11:35	65.5	65.5	65.5	88	61.8	0	3	338	0.00	29.925 
11:40	65.5	65.5	65.5	88	61.8	0	2	315	0.00	29.927 
11:45	65.5	65.5	65.5	87	61.5	0	2	315	0.00	29.927 
11:50	65.5	65.5	65.5	87	61.5	0	1	315	0.00	29.927 
11:55	65.6	65.6	65.6	86	61.3	0	3	315	0.00	29.927 
12:00	65.8	65.8	65.8	86	61.5	0	2	315	0.00	29.928 
12:05	65.8	65.8	65.8	84	60.8	0	3	315	0.00	29.928 
12:10	65.8	65.8	65.8	83	60.5	1	4	270	0.00	29.928 
12:15	66.3	66.3	66.3	82	60.6	0	2	315	0.00	29.932 
12:20	66.4	66.4	66.4	81	60.4	1	4	292	0.00	29.935 
12:25	66.6	66.6	66.6	82	60.9	0	2	292	0.00	29.932 
12:30	66.8	66.8	66.8	82	61.1	0	1	338	0.00	29.934 
12:35	66.6	66.6	66.6	81	60.6	0	1	338	0.00	29.934 
12:40	66.9	66.9	66.9	82	61.2	1	3	270	0.00	29.937 
12:45	67.1	67.1	67.1	81	61.1	0	2	270	0.00	29.940 
12:50	67.1	67.1	67.1	80	60.7	0	3	270	0.00	29.940 
12:55	67.4	67.4	67.4	80	61.0	1	5	158	0.00	29.940 
13:00	67.6	67.6	67.6	79	60.8	0	2	112	0.00	29.939 
13:05	67.8	67.8	67.8	78	60.7	1	3	90	0.00	29.939 
13:10	68.4	68.4	68.4	77	60.9	2	5	68	0.00	29.939 
13:15	68.9	68.9	68.9	78	61.7	1	4	135	0.00	29.939 
13:20	69.6	69.6	69.6	75	61.3	1	5	135	0.00	29.940 
13:25	70.4	70.4	70.4	76	62.5	1	11	45	0.00	29.939 
13:30	70.9	70.9	70.9	74	62.2	1	3	68	0.00	29.941 
13:35	70.9	70.9	70.9	71	61.0	1	5	112	0.00	29.943 
13:40	70.4	70.4	70.4	69	59.7	0	2	68	0.00	29.944 
13:45	69.9	69.9	69.9	72	60.4	1	3	22	0.00	29.945 
13:50	70.3	70.3	70.3	73	61.2	1	4	135	0.00	29.948 
13:55	70.4	70.4	70.4	73	61.3	1	2	135	0.00	29.946 
14:00	70.6	70.6	70.6	73	61.5	1	4	112	0.00	29.948 
14:05	71.1	71.1	71.1	73	62.0	1	4	112	0.00	29.949 
14:10	71.6	71.6	71.6	70	61.3	2	7	112	0.00	29.947 
14:15	71.6	71.6	71.6	72	62.1	1	4	112	0.00	29.950 
14:20	71.3	71.3	71.3	68	60.2	1	3	338	0.00	29.950 
14:25	70.9	70.9	70.9	68	59.8	1	3	90	0.00	29.952 
14:30	71.1	71.1	71.1	70	60.8	1	5	90	0.00	29.953 
14:35	71.1	71.1	71.1	71	61.2	1	3	22	0.00	29.954 
14:40	71.3	71.3	71.3	70	61.0	1	4	315	0.00	29.954 
14:45	70.9	70.9	70.9	66	59.0	1	5	112	0.00	29.955 
14:50	70.6	70.6	70.6	69	59.9	1	5	90	0.00	29.955 
14:55	70.4	70.4	70.4	70	60.1	0	2	68	0.00	29.955 
15:00	69.8	69.8	69.8	71	60.0	1	6	68	0.00	29.960 
15:05	69.6	69.6	69.6	70	59.4	1	4	68	0.00	29.961 
15:10	69.9	69.9	69.9	71	60.1	1	4	22	0.00	29.960 
15:15	70.1	70.1	70.1	70	59.8	0	2	315	0.00	29.966 
15:20	69.8	69.8	69.8	69	59.2	1	6	112	0.00	29.967 
15:25	69.9	69.9	69.9	69	59.3	1	5	158	0.00	29.964 
15:30	70.3	70.3	70.3	69	59.6	2	6	112	0.00	29.963 
15:35	69.8	69.8	69.8	69	59.2	1	4	90	0.00	29.967 
15:40	69.6	69.6	69.6	70	59.4	0	4	68	0.00	29.971 
15:45	69.8	69.8	69.8	68	58.7	1	4	112	0.00	29.968 
15:50	70.4	70.4	70.4	69	59.7	1	5	112	0.00	29.968 
15:55	70.9	70.9	70.9	69	60.2	1	3	135	0.00	29.967 
16:00	70.6	70.6	70.6	66	58.7	0	2	135	0.00	29.968 
16:05	70.3	70.3	70.3	69	59.6	0	2	90	0.00	29.967 
16:10	70.1	70.1	70.1	69	59.4	1	4	90	0.00	29.969 
16:15	69.6	69.6	69.6	69	59.0	1	4	135	0.00	29.966 
16:20	69.1	69.1	69.1	70	58.9	0	1	135	0.00	29.967 
16:25	69.1	69.1	69.1	67	57.7	1	4	45	0.00	29.969 
16:30	69.4	69.4	69.4	70	59.2	1	5	112	0.00	29.969 
16:35	70.3	70.3	70.3	68	59.2	0	3	292	0.00	29.969 
16:40	70.6	70.6	70.6	67	59.1	1	3	292	0.00	29.970 
16:45	70.3	70.3	70.3	65	58.0	1	3	135	0.00	29.972 
16:50	69.9	69.9	69.9	67	58.4	1	3	90	0.00	29.971 
16:55	69.6	69.6	69.6	69	59.0	0	2	90	0.00	29.971 
17:00	69.9	69.9	69.9	68	58.8	0	2	90	0.00	29.969 
17:05	70.4	70.4	70.4	65	58.1	1	4	112	0.00	29.971 
17:10	70.3	70.3	70.3	64	57.5	2	4	112	0.00	29.972 
17:15	70.1	70.1	70.1	66	58.2	1	3	112	0.00	29.972 
17:20	70.1	70.1	70.1	64	57.3	0	1	112	0.00	29.972 
17:25	70.3	70.3	70.3	65	58.0	0	3	112	0.00	29.973 
17:30	70.4	70.4	70.4	64	57.6	2	5	90	0.00	29.972 
17:35	70.1	70.1	70.1	64	57.3	1	6	112	0.00	29.972 
17:40	69.8	69.8	69.8	64	57.1	1	4	135	0.00	29.972 
17:45	69.8	69.8	69.8	67	58.3	0	3	135	0.00	29.973 
17:50	69.6	69.6	69.6	66	57.7	0	0	---	0.00	29.973 
17:55	69.4	69.4	69.4	66	57.5	0	1	135	0.00	29.973 
18:00	69.4	69.4	69.4	66	57.5	0	1	135	0.00	29.976 
18:05	69.3	69.3	69.3	66	57.4	0	1	135	0.00	29.978 
18:10	69.3	69.3	69.3	66	57.4	0	3	135	0.00	29.978 
18:15	69.4	69.4	69.4	66	57.5	0	1	135	0.00	29.980 
18:20	69.6	69.6	69.6	67	58.1	0	1	135	0.00	29.981 
18:25	69.6	69.6	69.6	66	57.7	0	0	---	0.00	29.983 
18:30	69.8	69.8	69.8	68	58.7	0	1	135	0.00	29.982 
18:35	69.6	69.6	69.6	68	58.6	0	1	135	0.00	29.986 
18:40	69.6	69.6	69.6	68	58.6	0	2	135	0.00	29.986 
18:45	69.6	69.6	69.6	68	58.6	0	0	---	0.00	29.986 
18:50	69.3	69.3	69.3	68	58.3	0	1	135	0.00	29.988 
18:55	69.1	69.1	69.1	67	57.7	0	1	135	0.00	29.988 
19:00	68.9	68.9	68.9	68	57.9	0	0	---	0.00	29.984 
19:05	68.8	68.8	68.8	68	57.8	0	0	---	0.00	29.983 
19:10	68.6	68.6	68.6	68	57.6	0	0	---	0.00	29.985 
19:15	68.6	68.6	68.6	69	58.0	0	0	---	0.00	29.985 
19:20	68.4	68.4	68.4	68	57.4	0	0	---	0.00	29.983 
19:25	68.3	68.3	68.3	69	57.7	0	0	---	0.00	29.982 
19:30	68.3	68.3	68.3	70	58.1	0	0	---	0.00	29.979 
19:35	68.1	68.1	68.1	70	57.9	0	0	---	0.00	29.979 
19:40	67.9	67.9	67.9	70	57.7	0	0	---	0.00	29.979 
19:45	67.8	67.8	67.8	71	58.0	0	0	---	0.00	29.979 
19:50	67.6	67.6	67.6	72	58.2	0	0	---	0.00	29.978 
19:55	67.4	67.4	67.4	73	58.4	0	0	---	0.00	29.980 
20:00	67.3	67.3	67.3	73	58.3	0	0	---	0.00	29.981 
20:05	66.9	66.9	66.9	74	58.3	0	0	---	0.00	29.984 
20:10	66.6	66.6	66.6	75	58.4	0	0	---	0.00	29.984 
20:15	66.4	66.4	66.4	76	58.6	0	0	---	0.00	29.982 
20:20	66.0	66.0	66.0	77	58.6	0	0	---	0.00	29.982 
20:25	65.6	65.6	65.6	77	58.2	0	0	---	0.00	29.985 
20:30	65.3	65.3	65.3	79	58.6	0	0	---	0.00	29.987 
20:35	65.0	65.0	65.0	80	58.7	0	0	---	0.00	29.990 
20:40	64.7	64.7	64.7	81	58.7	0	0	---	0.00	29.993 
20:45	64.3	64.3	64.3	82	58.7	0	0	---	0.00	29.994 
20:50	64.0	64.0	64.0	82	58.4	0	0	---	0.00	29.994 
20:55	63.9	63.9	63.9	83	58.6	0	0	---	0.00	29.995 
21:00	63.5	63.5	63.5	84	58.6	0	0	---	0.00	29.995 
21:05	63.2	63.2	63.2	85	58.6	0	0	---	0.00	29.999 
21:10	63.1	63.1	63.1	86	58.8	0	0	---	0.00	30.001 
21:15	62.7	62.7	62.7	87	58.8	0	0	---	0.00	30.002 
21:20	62.4	62.4	62.4	87	58.5	0	0	---	0.00	30.005 
21:25	62.3	62.3	62.3	88	58.7	0	0	---	0.00	30.009 
21:30	62.1	62.1	62.1	88	58.5	0	0	---	0.00	30.011 
21:35	62.0	62.0	62.0	88	58.4	0	0	---	0.00	30.011 
21:40	61.8	61.8	61.8	89	58.5	0	0	---	0.00	30.010 
21:45	61.6	61.6	61.6	89	58.3	0	0	---	0.00	30.010 
21:50	61.5	61.5	61.5	90	58.5	0	0	---	0.00	30.011 
21:55	61.3	61.3	61.3	90	58.3	0	0	---	0.00	30.011 
22:00	61.2	61.2	61.2	91	58.5	0	0	---	0.00	30.011 
22:05	61.0	61.0	61.0	91	58.4	0	0	---	0.00	30.012 
22:10	61.0	61.0	61.0	91	58.4	0	0	---	0.00	30.013 
22:15	60.9	60.9	60.9	91	58.3	0	0	---	0.00	30.013 
22:20	60.7	60.7	60.7	92	58.4	0	0	---	0.00	30.013 
22:25	60.7	60.7	60.7	92	58.4	0	0	---	0.00	30.012 
22:30	60.7	60.7	60.7	92	58.4	0	0	---	0.00	30.012 
22:35	60.5	60.5	60.5	92	58.2	0	0	---	0.00	30.012 
22:40	60.5	60.5	60.5	92	58.2	0	0	---	0.00	30.012 
22:45	60.5	60.5	60.5	93	58.5	0	0	---	0.00	30.011 
22:50	60.7	60.7	60.7	93	58.7	0	0	---	0.00	30.009 
22:55	60.7	60.7	60.7	93	58.7	0	0	---	0.00	30.010 
23:00	60.9	60.9	60.9	94	59.2	0	0	---	0.00	30.010 
23:05	61.0	61.0	61.0	94	59.3	0	0	---	0.00	30.010 
23:10	61.2	61.2	61.2	94	59.5	0	0	---	0.00	30.010 
23:15	61.2	61.2	61.2	94	59.5	0	0	---	0.00	30.010 
23:20	61.2	61.2	61.2	94	59.5	0	0	---	0.00	30.012 
23:25	61.0	61.0	61.0	94	59.3	0	0	---	0.00	30.012 
23:30	61.0	61.0	61.0	94	59.3	0	1	135	0.00	30.012 
23:35	61.0	61.0	61.0	94	59.3	0	0	---	0.00	30.011 
23:40	61.0	61.0	61.0	94	59.3	0	0	---	0.00	30.012 
23:45	61.0	61.0	61.0	94	59.3	0	0	---	0.00	30.012 
23:50	61.0	61.0	61.0	94	59.3	0	0	---	0.00	30.013 
23:55	60.9	60.9	60.9	94	59.2	0	0	---	0.00	30.013 

CoCoRaHS
IN-AL-39
A2 Web Hosting
Creative Commons License
GoDaddy
Look for:

loaded 2017-12-12 16:35:07 • last modified 2010-11-18 10:43:29
Privacy PolicyDisclaimer
• wx.awcolley.com is powered by PmWiki v.2002016 •
• all content (unless otherwise noted) © 2017 A W Colley